EGPB/LSI METAR and TAF weather

Enter ICAO airport designator
Station Type Date Time Source
EGPB METAR 2022/06/30 01:50 UTC NOAA

EGPB 300150Z AUTO 13011KT 0550 FG OVC001/// 12/12 Q1012


Station Type Date Time Source
EGPB Decoded METAR 2022/06/30 01:50 UTC NOAA

Sumburgh Cape , United Kingdom (EGPB) 59-53N 001-18W
Jun 29, 2022 - 09:50 PM EDT / 2022.06.30 0150 UTC
Wind: from the SE (130 degrees) at 13 MPH (11 KT):0
Visibility: less than 1 mile:0
Sky conditions: overcast
Weather: fog
Temperature: 53 F (12 C)
Dew Point: 53 F (12 C)
Relative Humidity: 100%
Pressure (altimeter): 29.88 in. Hg (1012 hPa)
ob: EGPB 300150Z AUTO 13011KT 0550 FG OVC001/// 12/12 Q1012
cycle: 2

Station Type Date Time Source
EGPB TAF UTC NOAA

Error!

Example: see airport list